Time;durP1;ratioP1;P1;durP2;ratioP2;P2;SDS_P1;SDS_P2;PMS_P1;PMS_P2;Temp;Humidity;BMP_temperature;BMP_pressure;BME280_temperature;BME280_humidity;BME280_pressure;Samples;Min_cycle;Max_cycle;Signal;HPM_P1;HPM_P2
2023/10/01 00:00:16;;;;;;;18.40;8.10;;;;;;;;;;5113870;28;20028;-39
2023/10/01 00:02:42;;;;;;;19.85;7.80;;;;;;;;;;5114438;28;20493;-39
2023/10/01 00:05:08;;;;;;;14.80;7.38;;;;;;;;;;5114126;28;20024;-39
2023/10/01 00:07:40;;;;;;;15.10;7.57;;;;;;;;;;5113757;28;20098;-40
2023/10/01 00:10:12;;;;;;;21.20;7.82;;;;;;;;;;5113966;28;20030;-39
2023/10/01 00:12:41;;;;;;;16.23;7.40;;;;;;;;;;5114079;28;20019;-39
2023/10/01 00:15:07;;;;;;;17.17;7.95;;;;;;;;;;5113702;28;20022;-39
2023/10/01 00:17:32;;;;;;;18.80;7.55;;;;;;;;;;5113668;28;20016;-39
2023/10/01 00:20:00;;;;;;;13.73;7.57;;;;;;;;;;5095482;28;20031;-39
2023/10/01 00:22:25;;;;;;;17.55;7.63;;;;;;;;;;5113719;28;20431;-39
2023/10/01 00:24:51;;;;;;;18.80;7.60;;;;;;;;;;5113510;28;20099;-39
2023/10/01 00:27:16;;;;;;;20.50;7.50;;;;;;;;;;5117440;28;20249;-39
2023/10/01 00:29:41;;;;;;;17.73;7.68;;;;;;;;;;5117603;28;20281;-39
2023/10/01 00:32:06;;;;;;;21.60;7.97;;;;;;;;;;5115827;28;20020;-38
2023/10/01 00:34:31;;;;;;;17.47;7.57;;;;;;;;;;5115530;28;20735;-39
2023/10/01 00:36:57;;;;;;;15.90;7.70;;;;;;;;;;5115446;28;20270;-39
2023/10/01 00:39:22;;;;;;;14.80;7.47;;;;;;;;;;5115520;28;20285;-39
2023/10/01 00:41:48;;;;;;;15.77;7.43;;;;;;;;;;5115332;28;20777;-39
2023/10/01 00:44:13;;;;;;;15.32;7.82;;;;;;;;;;5115603;28;20253;-39
2023/10/01 00:46:39;;;;;;;17.10;7.20;;;;;;;;;;5116587;28;20012;-39
2023/10/01 00:49:05;;;;;;;19.13;7.35;;;;;;;;;;5117117;28;20055;-39
2023/10/01 00:51:32;;;;;;;17.52;7.90;;;;;;;;;;5117586;28;20022;-39
2023/10/01 00:53:58;;;;;;;16.05;7.65;;;;;;;;;;5117263;28;20015;-39
2023/10/01 00:56:25;;;;;;;15.90;7.63;;;;;;;;;;5118258;28;20012;-39
2023/10/01 00:58:50;;;;;;;18.73;8.43;;;;;;;;;;5117417;28;20065;-39
2023/10/01 01:01:16;;;;;;;23.85;7.80;;;;;;;;;;5117627;28;20446;-38
2023/10/01 01:03:43;;;;;;;16.48;7.25;;;;;;;;;;5117361;28;20023;-39
2023/10/01 01:06:23;;;;;;;19.90;7.88;;;;;;;;;;5098738;28;20016;-39
2023/10/01 01:08:49;;;;;;;15.75;7.25;;;;;;;;;;5116865;28;20019;-39
2023/10/01 01:11:17;;;;;;;18.38;7.78;;;;;;;;;;5117238;28;20055;-39
2023/10/01 01:13:45;;;;;;;20.03;7.67;;;;;;;;;;5117410;28;20370;-39
2023/10/01 01:16:11;;;;;;;17.52;7.25;;;;;;;;;;5117104;28;20329;-39
2023/10/01 01:18:37;;;;;;;16.23;7.32;;;;;;;;;;5116734;28;20489;-39
2023/10/01 01:21:09;;;;;;;18.25;7.65;;;;;;;;;;5117005;28;20024;-39
2023/10/01 01:23:35;;;;;;;26.35;8.35;;;;;;;;;;5116968;28;20020;-39
2023/10/01 01:26:00;;;;;;;14.50;7.43;;;;;;;;;;5116703;28;20022;-39
2023/10/01 01:28:30;;;;;;;14.60;7.18;;;;;;;;;;5116846;28;20012;-38
2023/10/01 01:30:56;;;;;;;17.33;7.30;;;;;;;;;;5098214;28;20011;-39
2023/10/01 01:33:21;;;;;;;14.63;6.90;;;;;;;;;;5116797;28;20028;-39
2023/10/01 01:35:49;;;;;;;22.88;6.90;;;;;;;;;;5117032;28;20019;-39
2023/10/01 01:38:15;;;;;;;15.25;6.60;;;;;;;;;;5116125;28;20015;-39
2023/10/01 01:40:42;;;;;;;18.25;6.55;;;;;;;;;;5116621;28;20084;-39
2023/10/01 01:43:21;;;;;;;16.55;6.78;;;;;;;;;;5098594;28;20081;-39
2023/10/01 01:45:47;;;;;;;13.85;5.72;;;;;;;;;;5116237;28;20095;-39
2023/10/01 01:48:22;;;;;;;14.13;5.90;;;;;;;;;;5116260;28;20078;-39
2023/10/01 01:50:50;;;;;;;14.50;5.13;;;;;;;;;;5116151;28;20023;-39
2023/10/01 01:53:18;;;;;;;13.50;4.90;;;;;;;;;;5116097;28;20069;-39
2023/10/01 01:55:43;;;;;;;19.40;5.07;;;;;;;;;;5097736;28;20016;-39
2023/10/01 01:58:08;;;;;;;12.85;4.63;;;;;;;;;;5116317;28;20100;-39
2023/10/01 02:00:37;;;;;;;11.43;4.40;;;;;;;;;;5116282;28;20031;-39
2023/10/01 02:03:24;;;;;;;11.45;4.30;;;;;;;;;;5116003;28;20031;-39
2023/10/01 02:05:49;;;;;;;12.07;3.90;;;;;;;;;;5116403;28;20019;-39
2023/10/01 02:08:23;;;;;;;16.43;4.60;;;;;;;;;;5115881;28;20065;-39
2023/10/01 02:10:50;;;;;;;16.23;4.40;;;;;;;;;;5115625;28;20285;-39
2023/10/01 02:13:18;;;;;;;15.90;4.45;;;;;;;;;;5097501;28;20022;-39
2023/10/01 02:15:46;;;;;;;16.45;4.30;;;;;;;;;;5097397;28;20019;-38
2023/10/01 02:18:16;;;;;;;10.48;3.83;;;;;;;;;;5116230;28;20020;-39
2023/10/01 02:20:44;;;;;;;12.57;4.30;;;;;;;;;;5097374;28;20028;-39
2023/10/01 02:23:12;;;;;;;13.52;3.90;;;;;;;;;;5115463;28;20023;-39
2023/10/01 02:25:38;;;;;;;12.75;3.90;;;;;;;;;;5115758;28;20034;-39
2023/10/01 02:28:12;;;;;;;12.27;4.18;;;;;;;;;;5116316;28;20023;-39
2023/10/01 02:30:41;;;;;;;15.82;3.95;;;;;;;;;;5115629;28;20059;-39
2023/10/01 02:33:17;;;;;;;13.23;4.45;;;;;;;;;;5115665;28;20399;-39
2023/10/01 02:35:42;;;;;;;17.10;4.15;;;;;;;;;;5115636;28;20355;-39
2023/10/01 02:38:36;;;;;;;19.05;4.68;;;;;;;;;;5097082;28;20027;-39
2023/10/01 02:40:57;;;;;;;16.92;4.53;;;;;;;;;;5115845;28;20024;-39
2023/10/01 02:43:24;;;;;;;14.00;4.38;;;;;;;;;;5115202;28;20018;-39
2023/10/01 02:45:50;;;;;;;15.38;5.13;;;;;;;;;;5115425;28;20039;-39
2023/10/01 02:48:18;;;;;;;18.33;4.70;;;;;;;;;;5114810;28;20046;-39
2023/10/01 02:50:45;;;;;;;13.45;4.28;;;;;;;;;;5114050;28;20034;-39
2023/10/01 02:53:11;;;;;;;14.77;5.25;;;;;;;;;;5115198;28;20034;-39
2023/10/01 02:55:44;;;;;;;20.52;5.00;;;;;;;;;;5115210;28;20019;-40
2023/10/01 02:58:17;;;;;;;;;;;;;;;;;;5097135;28;20019;-39
2023/10/01 03:00:43;;;;;;;15.85;4.88;;;;;;;;;;5114804;28;19954;-40
2023/10/01 03:03:14;;;;;;;14.23;5.07;;;;;;;;;;5114769;28;20024;-39
2023/10/01 03:05:42;;;;;;;12.85;4.60;;;;;;;;;;5114984;28;20031;-39
2023/10/01 03:08:11;;;;;;;15.20;4.78;;;;;;;;;;5114702;28;20023;-39
2023/10/01 03:10:38;;;;;;;18.30;5.00;;;;;;;;;;5114536;28;20034;-40
2023/10/01 03:13:15;;;;;;;16.80;4.82;;;;;;;;;;5114853;28;20024;-39
2023/10/01 03:15:41;;;;;;;16.52;4.68;;;;;;;;;;5115083;28;20090;-39
2023/10/01 03:18:08;;;;;;;21.55;5.35;;;;;;;;;;5114780;28;20366;-39
2023/10/01 03:23:04;;;;;;;14.15;5.10;;;;;;;;;;5114722;28;20032;-42
2023/10/01 03:25:42;;;;;;;13.20;5.95;;;;;;;;;;5114687;28;20066;-39
2023/10/01 03:28:11;;;;;;;14.30;4.90;;;;;;;;;;5114646;28;20028;-39
2023/10/01 03:30:39;;;;;;;15.35;5.10;;;;;;;;;;5114532;28;20020;-39
2023/10/01 03:33:08;;;;;;;15.88;5.05;;;;;;;;;;5114205;28;20008;-39
2023/10/01 03:35:36;;;;;;;18.83;5.20;;;;;;;;;;5114568;28;20485;-39
2023/10/01 03:38:10;;;;;;;17.65;5.18;;;;;;;;;;5114521;28;20015;-39
2023/10/01 03:43:31;;;;;;;16.45;5.22;;;;;;;;;;5114941;28;20119;-39
2023/10/01 03:46:06;;;;;;;14.88;5.10;;;;;;;;;;5114401;28;20045;-39
2023/10/01 03:48:57;;;;;;;14.95;5.30;;;;;;;;;;5114100;28;20101;-39
2023/10/01 03:51:16;;;;;;;16.13;5.32;;;;;;;;;;5113908;28;20035;-40
2023/10/01 03:53:43;;;;;;;15.40;5.67;;;;;;;;;;5095839;28;20489;-38
2023/10/01 03:56:08;;;;;;;17.90;5.43;;;;;;;;;;5114036;28;20332;-39
2023/10/01 03:58:36;;;;;;;17.42;5.53;;;;;;;;;;5114287;28;20516;-39
2023/10/01 04:01:15;;;;;;;15.27;5.10;;;;;;;;;;5113948;28;20038;-39
2023/10/01 04:03:42;;;;;;;15.63;5.53;;;;;;;;;;5113882;28;20036;-39
2023/10/01 04:06:07;;;;;;;16.15;5.20;;;;;;;;;;5114199;28;20027;-39
2023/10/01 04:08:39;;;;;;;14.23;5.07;;;;;;;;;;5114172;28;20008;-38
2023/10/01 04:11:05;;;;;;;18.33;5.70;;;;;;;;;;5113997;28;20778;-39
2023/10/01 04:13:32;;;;;;;16.92;5.40;;;;;;;;;;5114142;28;20008;-39
2023/10/01 04:16:07;;;;;;;14.43;5.10;;;;;;;;;;5095553;28;20019;-39
2023/10/01 04:18:34;;;;;;;22.50;5.55;;;;;;;;;;5114129;28;20455;-38
2023/10/01 04:23:32;;;;;;;16.00;5.43;;;;;;;;;;5113805;28;20486;-39
2023/10/01 04:26:05;;;;;;;13.27;5.07;;;;;;;;;;5113744;28;20256;-39
2023/10/01 04:28:31;;;;;;;17.73;5.22;;;;;;;;;;5113939;28;20028;-38
2023/10/01 04:30:56;;;;;;;15.13;5.10;;;;;;;;;;5113539;28;20023;-39
2023/10/01 04:33:25;;;;;;;15.18;5.50;;;;;;;;;;5114250;28;20064;-39
2023/10/01 04:35:58;;;;;;;13.85;5.32;;;;;;;;;;5113922;28;20015;-39
2023/10/01 04:38:28;;;;;;;24.65;5.65;;;;;;;;;;5113863;28;20446;-39
2023/10/01 04:40:54;;;;;;;14.98;5.00;;;;;;;;;;5113879;28;20076;-39
2023/10/01 04:43:20;;;;;;;19.08;5.57;;;;;;;;;;5113779;28;20446;-39
2023/10/01 04:45:46;;;;;;;16.10;5.65;;;;;;;;;;5113552;28;20098;-39
2023/10/01 04:48:22;;;;;;;14.80;5.50;;;;;;;;;;5113483;28;20058;-39
2023/10/01 04:50:49;;;;;;;15.50;5.50;;;;;;;;;;5113394;28;20023;-39
2023/10/01 04:53:15;;;;;;;15.23;5.03;;;;;;;;;;5113433;28;20051;-39
2023/10/01 04:55:43;;;;;;;15.60;5.40;;;;;;;;;;5113982;28;20039;-39
2023/10/01 04:58:12;;;;;;;15.55;5.50;;;;;;;;;;5113644;28;20018;-39
2023/10/01 05:00:37;;;;;;;15.02;5.45;;;;;;;;;;5113367;28;20024;-39
2023/10/01 05:03:06;;;;;;;16.45;5.38;;;;;;;;;;5113599;28;20023;-39
2023/10/01 05:05:33;;;;;;;14.13;5.18;;;;;;;;;;5113204;28;20034;-41
2023/10/01 05:07:58;;;;;;;15.90;5.20;;;;;;;;;;5113617;28;20027;-43
2023/10/01 05:10:26;;;;;;;15.77;5.23;;;;;;;;;;5113757;28;20028;-40
2023/10/01 05:12:55;;;;;;;13.88;5.30;;;;;;;;;;5114285;28;20258;-39
2023/10/01 05:15:31;;;;;;;19.75;5.53;;;;;;;;;;5098581;28;20015;-39
2023/10/01 05:17:56;;;;;;;17.50;5.88;;;;;;;;;;5116785;28;20027;-39
2023/10/01 05:20:25;;;;;;;15.03;5.00;;;;;;;;;;5116799;28;20023;-40
2023/10/01 05:22:54;;;;;;;17.83;5.60;;;;;;;;;;5116708;28;20272;-40
2023/10/01 05:25:19;;;;;;;17.65;5.70;;;;;;;;;;5117184;28;20526;-39
2023/10/01 05:27:45;;;;;;;16.40;5.55;;;;;;;;;;5116637;28;20062;-39
2023/10/01 05:30:34;;;;;;;18.77;5.90;;;;;;;;;;5117595;28;20028;-39
2023/10/01 05:32:58;;;;;;;17.40;5.63;;;;;;;;;;5116293;28;20103;-39
2023/10/01 05:35:23;;;;;;;16.90;5.50;;;;;;;;;;5116456;28;20077;-39
2023/10/01 05:37:49;;;;;;;20.20;5.70;;;;;;;;;;5098179;28;20011;-39
2023/10/01 05:40:15;;;;;;;15.75;5.55;;;;;;;;;;5117048;28;20019;-39
2023/10/01 05:42:41;;;;;;;13.77;5.63;;;;;;;;;;5116345;28;20015;-39
2023/10/01 05:45:14;;;;;;;18.70;6.38;;;;;;;;;;5116855;28;20031;-39
2023/10/01 05:47:50;;;;;;;16.45;5.63;;;;;;;;;;5116404;28;20023;-39
2023/10/01 05:50:18;;;;;;;15.18;5.60;;;;;;;;;;5116472;28;20116;-39
2023/10/01 05:52:45;;;;;;;15.65;5.50;;;;;;;;;;5116431;28;20137;-39
2023/10/01 05:55:15;;;;;;;16.17;5.38;;;;;;;;;;5116437;28;20423;-39
2023/10/01 05:57:41;;;;;;;15.73;5.13;;;;;;;;;;5116017;28;20049;-39
2023/10/01 06:00:16;;;;;;;15.88;5.53;;;;;;;;;;5116057;28;20071;-40
2023/10/01 06:02:42;;;;;;;16.90;5.93;;;;;;;;;;5116267;28;20023;-39
2023/10/01 06:05:25;;;;;;;17.40;5.95;;;;;;;;;;5116301;28;20053;-39
2023/10/01 06:07:50;;;;;;;17.15;5.95;;;;;;;;;;5117026;28;20091;-39
2023/10/01 06:10:19;;;;;;;16.27;5.38;;;;;;;;;;5116027;28;20505;-39
2023/10/01 06:12:50;;;;;;;14.80;5.78;;;;;;;;;;5116105;28;20019;-39
2023/10/01 06:15:20;;;;;;;13.77;5.25;;;;;;;;;;5115954;28;20457;-44
2023/10/01 06:17:46;;;;;;;16.30;5.80;;;;;;;;;;5116498;28;20024;-40
2023/10/01 06:20:23;;;;;;;18.38;5.28;;;;;;;;;;5097430;28;20028;-49
2023/10/01 06:22:49;;;;;;;15.93;5.57;;;;;;;;;;5115548;28;20023;-40
2023/10/01 06:25:15;;;;;;;13.60;5.30;;;;;;;;;;5115402;28;20047;-39
2023/10/01 06:27:40;;;;;;;15.35;5.50;;;;;;;;;;5115508;28;20023;-39
2023/10/01 06:30:07;;;;;;;14.05;5.63;;;;;;;;;;5115428;28;20019;-40
2023/10/01 06:32:33;;;;;;;20.30;5.80;;;;;;;;;;5114020;28;20094;-39
2023/10/01 06:34:59;;;;;;;21.65;6.53;;;;;;;;;;5115645;28;20020;-39
2023/10/01 06:37:45;;;;;;;19.15;6.45;;;;;;;;;;5115602;28;20505;-40
2023/10/01 06:40:29;;;;;;;13.65;5.40;;;;;;;;;;5115068;28;20114;-39
2023/10/01 06:42:55;;;;;;;21.13;6.22;;;;;;;;;;5115478;28;20458;-39
2023/10/01 06:45:38;;;;;;;16.20;6.43;;;;;;;;;;5115121;28;20028;-40
2023/10/01 06:48:08;;;;;;;16.60;6.38;;;;;;;;;;5114948;28;20035;-39
2023/10/01 06:50:35;;;;;;;19.65;6.05;;;;;;;;;;5115256;28;20028;-39
2023/10/01 06:53:00;;;;;;;17.15;6.20;;;;;;;;;;5115189;28;20396;-39
2023/10/01 06:55:25;;;;;;;16.27;5.88;;;;;;;;;;5115004;28;20022;-40
2023/10/01 06:57:51;;;;;;;17.42;6.18;;;;;;;;;;5114834;28;20433;-39
2023/10/01 07:00:21;;;;;;;18.08;6.00;;;;;;;;;;5115684;28;20032;-39
2023/10/01 07:02:47;;;;;;;14.27;5.95;;;;;;;;;;5115136;28;20023;-39
2023/10/01 07:05:16;;;;;;;17.10;5.78;;;;;;;;;;5114719;28;20040;-38
2023/10/01 07:07:42;;;;;;;15.85;6.20;;;;;;;;;;5115026;28;20031;-38
2023/10/01 07:10:10;;;;;;;18.17;6.07;;;;;;;;;;5096385;28;20020;-38
2023/10/01 07:12:36;;;;;;;15.18;5.97;;;;;;;;;;5114910;28;20355;-38
2023/10/01 07:15:03;;;;;;;14.75;6.05;;;;;;;;;;5114447;28;20027;-39
2023/10/01 07:17:28;;;;;;;16.17;6.35;;;;;;;;;;5114812;28;20028;-40
2023/10/01 07:20:00;;;;;;;19.83;6.35;;;;;;;;;;5114795;28;20077;-39
2023/10/01 07:22:26;;;;;;;16.88;6.25;;;;;;;;;;5114752;28;20026;-39
2023/10/01 07:24:51;;;;;;;19.58;6.55;;;;;;;;;;5114683;28;20424;-39
2023/10/01 07:27:17;;;;;;;16.30;6.80;;;;;;;;;;5114390;28;20016;-39
2023/10/01 07:29:43;;;;;;;14.98;6.45;;;;;;;;;;5096041;28;20326;-39
2023/10/01 07:32:12;;;;;;;19.73;6.95;;;;;;;;;;5114309;28;20015;-39
2023/10/01 07:34:42;;;;;;;16.73;7.00;;;;;;;;;;5114535;28;20035;-38
2023/10/01 07:37:08;;;;;;;18.15;6.68;;;;;;;;;;5113989;28;20458;-39
2023/10/01 07:39:34;;;;;;;17.33;6.82;;;;;;;;;;5114142;28;20019;-39
2023/10/01 07:42:02;;;;;;;17.15;6.35;;;;;;;;;;5114478;28;20065;-39
2023/10/01 07:44:27;;;;;;;15.75;6.80;;;;;;;;;;5114629;28;20020;-39
2023/10/01 07:46:52;;;;;;;16.42;6.60;;;;;;;;;;5114059;28;20026;-39
2023/10/01 07:49:18;;;;;;;25.33;7.13;;;;;;;;;;5113918;28;20097;-39
2023/10/01 07:51:44;;;;;;;17.73;6.93;;;;;;;;;;5114353;28;20142;-40
2023/10/01 07:54:10;;;;;;;15.63;6.63;;;;;;;;;;5114032;28;20119;-40
2023/10/01 07:56:36;;;;;;;19.58;7.70;;;;;;;;;;5095754;28;20020;-39
2023/10/01 07:59:17;;;;;;;18.65;7.40;;;;;;;;;;5114513;28;20099;-40
2023/10/01 08:01:42;;;;;;;16.92;7.15;;;;;;;;;;5114234;28;20031;-40
2023/10/01 08:06:56;;;;;;;14.32;7.32;;;;;;;;;;5082542;28;20015;-39
2023/10/01 08:09:21;;;;;;;16.50;7.30;;;;;;;;;;5113799;28;20034;-40
2023/10/01 08:12:05;;;;;;;15.83;7.07;;;;;;;;;;5113637;28;20019;-40
2023/10/01 08:14:33;;;;;;;17.55;7.38;;;;;;;;;;5114322;28;20595;-40
2023/10/01 08:17:00;;;;;;;12.88;6.75;;;;;;;;;;5113722;28;20027;-41
2023/10/01 08:19:41;;;;;;;17.02;7.07;;;;;;;;;;5114064;28;20024;-41
2023/10/01 08:22:13;;;;;;;14.85;7.30;;;;;;;;;;5114476;28;20020;-34
2023/10/01 08:24:39;;;;;;;18.40;7.20;;;;;;;;;;5114510;28;20054;-34
2023/10/01 08:27:12;;;;;;;15.55;7.30;;;;;;;;;;5113705;28;20016;-34
2023/10/01 08:32:24;;;;;;;14.63;6.75;;;;;;;;;;5114170;28;20427;-35
2023/10/01 08:35:01;;;;;;;13.05;6.97;;;;;;;;;;5095338;28;20080;-34
2023/10/01 08:37:31;;;;;;;15.00;7.18;;;;;;;;;;5114245;28;20132;-35
2023/10/01 08:40:00;;;;;;;14.95;7.32;;;;;;;;;;5113877;28;20373;-35
2023/10/01 08:42:33;;;;;;;16.05;7.05;;;;;;;;;;5113836;28;20019;-35
2023/10/01 08:45:06;;;;;;;14.85;7.57;;;;;;;;;;5113853;28;20054;-35
2023/10/01 08:47:31;;;;;;;15.98;7.15;;;;;;;;;;5113475;28;20055;-35
2023/10/01 08:52:56;;;;;;;17.67;7.65;;;;;;;;;;5118221;28;20132;-36
2023/10/01 08:55:22;;;;;;;;;;;;;;;;;;5117658;28;20039;-35
2023/10/01 08:57:52;;;;;;;15.73;7.50;;;;;;;;;;5117264;28;19973;-34
2023/10/01 09:00:19;;;;;;;16.40;7.43;;;;;;;;;;5117101;28;20024;-35
2023/10/01 09:02:52;;;;;;;15.60;7.32;;;;;;;;;;5117332;28;20024;-35
2023/10/01 09:05:27;;;;;;;13.82;7.25;;;;;;;;;;5117637;28;20462;-36
2023/10/01 09:08:15;;;;;;;14.55;7.00;;;;;;;;;;5117041;28;20015;-34
2023/10/01 09:10:48;;;;;;;17.83;7.75;;;;;;;;;;5116694;28;20070;-35
2023/10/01 09:13:20;;;;;;;17.33;7.20;;;;;;;;;;5116873;28;20018;-36
2023/10/01 09:15:46;;;;;;;17.15;7.25;;;;;;;;;;5117119;28;20020;-35
2023/10/01 09:18:11;;;;;;;20.73;7.70;;;;;;;;;;5117072;28;20019;-35
2023/10/01 09:20:38;;;;;;;17.60;7.10;;;;;;;;;;5117316;28;20051;-35
2023/10/01 09:23:03;;;;;;;14.77;6.80;;;;;;;;;;5098506;28;20363;-35
2023/10/01 09:25:30;;;;;;;15.98;7.20;;;;;;;;;;5116945;28;20107;-36
2023/10/01 09:28:03;;;;;;;17.42;7.25;;;;;;;;;;5116815;28;20034;-34
2023/10/01 09:30:31;;;;;;;16.02;6.97;;;;;;;;;;5116731;28;20027;-37
2023/10/01 09:33:04;;;;;;;19.38;7.40;;;;;;;;;;5117048;28;20068;-35
2023/10/01 09:35:40;;;;;;;20.13;7.03;;;;;;;;;;5116465;28;20023;-35
2023/10/01 09:38:13;;;;;;;16.75;6.88;;;;;;;;;;5116454;28;20018;-34
2023/10/01 09:40:41;;;;;;;19.85;7.32;;;;;;;;;;5116628;28;20061;-36
2023/10/01 09:43:18;;;;;;;16.38;6.95;;;;;;;;;;5116334;28;20023;-35
2023/10/01 09:45:46;;;;;;;19.45;6.60;;;;;;;;;;5116625;28;20027;-41
2023/10/01 09:48:23;;;;;;;16.33;6.70;;;;;;;;;;5116165;28;20082;-40
2023/10/01 09:50:50;;;;;;;20.42;6.90;;;;;;;;;;5116082;28;20034;-41
2023/10/01 09:53:19;;;;;;;18.98;6.72;;;;;;;;;;5116698;28;20099;-41
2023/10/01 09:55:48;;;;;;;18.67;7.40;;;;;;;;;;5116421;28;20027;-41
2023/10/01 09:58:25;;;;;;;18.65;7.22;;;;;;;;;;5115829;28;20050;-41
2023/10/01 10:00:51;;;;;;;15.40;6.85;;;;;;;;;;5116033;28;20044;-41
2023/10/01 10:03:18;;;;;;;18.55;6.93;;;;;;;;;;5116284;28;20020;-41
2023/10/01 10:05:43;;;;;;;19.88;7.50;;;;;;;;;;5116350;28;20069;-41
2023/10/01 10:08:15;;;;;;;18.02;6.93;;;;;;;;;;5116082;28;20416;-41
2023/10/01 10:10:52;;;;;;;14.55;6.72;;;;;;;;;;5116043;28;20027;-45
2023/10/01 10:13:46;;;;;;;16.42;6.93;;;;;;;;;;5115767;28;20426;-41
2023/10/01 10:16:33;;;;;;;15.38;7.10;;;;;;;;;;5115507;28;20024;-41
2023/10/01 10:19:20;;;;;;;18.63;7.20;;;;;;;;;;5115192;28;20049;-41
2023/10/01 10:24:35;;;;;;;17.98;6.78;;;;;;;;;;5115032;28;20031;-41
2023/10/01 10:27:08;;;;;;;19.02;7.40;;;;;;;;;;5113511;28;20057;-42
2023/10/01 10:32:24;;;;;;;16.65;6.95;;;;;;;;;;5113639;28;20151;-42
2023/10/01 10:35:04;;;;;;;18.98;7.00;;;;;;;;;;5113675;28;20450;-42
2023/10/01 10:37:39;;;;;;;15.93;6.63;;;;;;;;;;5113269;28;20024;-42
2023/10/01 10:40:22;;;;;;;15.45;6.75;;;;;;;;;;5113575;28;20033;-42
2023/10/01 10:42:56;;;;;;;19.17;6.50;;;;;;;;;;5114806;28;20020;-41
2023/10/01 10:45:22;;;;;;;19.42;6.93;;;;;;;;;;5115166;28;20015;-39
2023/10/01 10:48:03;;;;;;;18.30;7.40;;;;;;;;;;5115165;28;20024;-41
2023/10/01 10:50:50;;;;;;;16.20;7.30;;;;;;;;;;5115251;28;20062;-42
2023/10/01 10:53:21;;;;;;;21.80;7.38;;;;;;;;;;5114911;28;20031;-41
2023/10/01 10:56:04;;;;;;;21.63;7.60;;;;;;;;;;5116069;28;20039;-42
2023/10/01 10:58:39;;;;;;;21.27;7.88;;;;;;;;;;5115158;28;20099;-41
2023/10/01 11:01:18;;;;;;;17.08;7.47;;;;;;;;;;5115070;28;20366;-42
2023/10/01 11:03:47;;;;;;;17.40;7.05;;;;;;;;;;5115430;28;20054;-41
2023/10/01 11:06:22;;;;;;;16.88;7.43;;;;;;;;;;5115012;28;20023;-41
2023/10/01 11:08:51;;;;;;;21.02;7.25;;;;;;;;;;5114774;28;20012;-42
2023/10/01 11:11:28;;;;;;;16.27;7.60;;;;;;;;;;5114816;28;20027;-41
2023/10/01 11:14:02;;;;;;;19.83;7.70;;;;;;;;;;5115132;28;20016;-42
2023/10/01 11:16:36;;;;;;;19.63;7.75;;;;;;;;;;5114544;28;20137;-42
2023/10/01 11:19:14;;;;;;;19.90;7.30;;;;;;;;;;5114811;28;20098;-42
2023/10/01 11:21:44;;;;;;;20.45;7.28;;;;;;;;;;5114830;28;20068;-42
2023/10/01 11:24:09;;;;;;;17.20;7.43;;;;;;;;;;5114348;28;20012;-42
2023/10/01 11:26:35;;;;;;;19.33;7.72;;;;;;;;;;5115060;28;20091;-42
2023/10/01 11:29:01;;;;;;;18.67;8.10;;;;;;;;;;5114506;28;20442;-42
2023/10/01 11:31:27;;;;;;;20.05;8.05;;;;;;;;;;5114610;28;20238;-42
2023/10/01 11:33:59;;;;;;;23.10;8.38;;;;;;;;;;5114587;28;20479;-41
2023/10/01 11:36:35;;;;;;;20.45;8.10;;;;;;;;;;5114565;28;20024;-41
2023/10/01 11:39:03;;;;;;;20.35;8.23;;;;;;;;;;5114516;28;20410;-42
2023/10/01 11:41:38;;;;;;;21.30;8.30;;;;;;;;;;5114519;28;20023;-42
2023/10/01 11:44:04;;;;;;;20.55;8.52;;;;;;;;;;5114429;28;20445;-42
2023/10/01 11:46:32;;;;;;;21.40;8.80;;;;;;;;;;5114054;28;20051;-42
2023/10/01 11:49:07;;;;;;;19.75;8.18;;;;;;;;;;5113827;28;20043;-41
2023/10/01 11:51:32;;;;;;;19.23;8.50;;;;;;;;;;5114314;28;20038;-41
2023/10/01 11:53:58;;;;;;;21.90;8.00;;;;;;;;;;5114019;28;20020;-42
2023/10/01 11:56:23;;;;;;;21.05;8.05;;;;;;;;;;5114289;28;20069;-42
2023/10/01 11:58:48;;;;;;;20.83;8.23;;;;;;;;;;5113895;28;20428;-41
2023/10/01 12:01:13;;;;;;;17.37;7.77;;;;;;;;;;5114555;28;20024;-42
2023/10/01 12:03:39;;;;;;;15.35;7.30;;;;;;;;;;5113893;28;20069;-42
2023/10/01 12:06:04;;;;;;;17.83;6.87;;;;;;;;;;5113945;28;20051;-42
2023/10/01 12:08:35;;;;;;;18.55;7.47;;;;;;;;;;5113771;28;20257;-42
2023/10/01 12:11:26;;;;;;;19.85;7.50;;;;;;;;;;5114047;28;20462;-41
2023/10/01 12:14:04;;;;;;;17.83;7.53;;;;;;;;;;5113635;28;20026;-40
2023/10/01 12:16:29;;;;;;;19.58;7.93;;;;;;;;;;5114059;28;20377;-41
2023/10/01 12:19:17;;;;;;;20.85;7.60;;;;;;;;;;5113791;28;20019;-40
2023/10/01 12:21:39;;;;;;;19.80;7.50;;;;;;;;;;5113998;28;20084;-40
2023/10/01 12:24:12;;;;;;;17.67;7.70;;;;;;;;;;5118391;28;20011;-40
2023/10/01 12:26:38;;;;;;;16.85;7.35;;;;;;;;;;5117814;28;20068;-40
2023/10/01 12:29:13;;;;;;;16.13;7.32;;;;;;;;;;5118887;28;20350;-40
2023/10/01 12:31:44;;;;;;;18.23;7.05;;;;;;;;;;5117985;28;20464;-40
2023/10/01 12:34:09;;;;;;;15.85;7.35;;;;;;;;;;5117686;28;20050;-46
2023/10/01 12:36:47;;;;;;;18.00;7.13;;;;;;;;;;5118245;28;20047;-41
2023/10/01 12:41:48;;;;;;;17.70;7.30;;;;;;;;;;5118405;28;20036;-40
2023/10/01 12:44:25;;;;;;;15.93;6.82;;;;;;;;;;5117791;28;20592;-42
2023/10/01 12:47:00;;;;;;;19.27;6.97;;;;;;;;;;5118039;28;20106;-41
2023/10/01 12:49:25;;;;;;;14.00;6.78;;;;;;;;;;5117217;28;20052;-41
2023/10/01 12:51:53;;;;;;;17.52;7.13;;;;;;;;;;5117657;28;20085;-41
2023/10/01 12:54:22;;;;;;;17.98;7.57;;;;;;;;;;5117362;28;20027;-42
2023/10/01 12:56:48;;;;;;;16.35;7.68;;;;;;;;;;5117273;28;20187;-41
2023/10/01 12:59:20;;;;;;;17.00;7.60;;;;;;;;;;5117586;28;20091;-41
2023/10/01 13:01:50;;;;;;;16.13;7.10;;;;;;;;;;5117566;28;20038;-40
2023/10/01 13:04:22;;;;;;;16.25;6.78;;;;;;;;;;5117493;28;20031;-41
2023/10/01 13:06:47;;;;;;;19.47;8.07;;;;;;;;;;5117921;28;20008;-42
2023/10/01 13:09:37;;;;;;;15.98;6.93;;;;;;;;;;5117517;28;20256;-41
2023/10/01 13:12:14;;;;;;;15.80;7.07;;;;;;;;;;5116966;28;20023;-41
2023/10/01 13:15:14;;;;;;;25.17;6.97;;;;;;;;;;5117107;28;20024;-41
2023/10/01 13:17:35;;;;;;;17.73;7.38;;;;;;;;;;5116749;28;20488;-41
2023/10/01 13:20:18;;;;;;;18.13;7.20;;;;;;;;;;5117087;28;20015;-41
2023/10/01 13:22:48;;;;;;;16.00;6.85;;;;;;;;;;5117032;28;20377;-41
2023/10/01 13:25:18;;;;;;;18.50;7.60;;;;;;;;;;5117045;28;20479;-41
2023/10/01 13:27:46;;;;;;;16.85;7.28;;;;;;;;;;5116958;28;20453;-41
2023/10/01 13:30:20;;;;;;;21.48;6.75;;;;;;;;;;5116777;28;20469;-40
2023/10/01 13:35:36;;;;;;;19.33;7.18;;;;;;;;;;5117015;28;20031;-41
2023/10/01 14:10:53;;;;;;;20.58;7.53;;;;;;;;;;5115067;28;20111;-41
2023/10/01 14:13:29;;;;;;;17.70;7.60;;;;;;;;;;5115071;28;20055;-41
2023/10/01 14:16:11;;;;;;;17.63;7.05;;;;;;;;;;5115154;28;20264;-41
2023/10/01 14:18:36;;;;;;;17.73;7.60;;;;;;;;;;5115513;28;20008;-41
2023/10/01 14:21:12;;;;;;;18.77;7.97;;;;;;;;;;5115724;28;20068;-40
2023/10/01 14:23:42;;;;;;;18.42;7.07;;;;;;;;;;5116212;28;20022;-41
2023/10/01 14:26:11;;;;;;;16.70;6.70;;;;;;;;;;5115885;28;20027;-41
2023/10/01 14:28:37;;;;;;;15.38;7.10;;;;;;;;;;5115486;28;20023;-41
2023/10/01 14:31:11;;;;;;;16.52;6.57;;;;;;;;;;5115397;28;20027;-41
2023/10/01 14:33:39;;;;;;;20.25;7.07;;;;;;;;;;5115459;28;20142;-42
2023/10/01 14:36:04;;;;;;;22.95;7.85;;;;;;;;;;5115319;28;20016;-40
2023/10/01 14:38:42;;;;;;;18.00;7.35;;;;;;;;;;5116425;28;20047;-41
2023/10/01 14:41:10;;;;;;;20.42;7.32;;;;;;;;;;5115313;28;20058;-41
2023/10/01 14:43:41;;;;;;;16.98;7.43;;;;;;;;;;5115537;28;20028;-41
2023/10/01 14:46:08;;;;;;;21.65;7.70;;;;;;;;;;5115361;28;20027;-40
2023/10/01 14:48:38;;;;;;;18.77;7.38;;;;;;;;;;5114986;28;20069;-40
2023/10/01 14:51:03;;;;;;;22.38;7.88;;;;;;;;;;5115276;28;20015;-41
2023/10/01 14:53:36;;;;;;;18.42;6.95;;;;;;;;;;5115269;28;20019;-41
2023/10/01 14:56:04;;;;;;;18.25;6.95;;;;;;;;;;5115258;28;20361;-41
2023/10/01 14:58:29;;;;;;;20.10;7.72;;;;;;;;;;5114840;28;20020;-42
2023/10/01 15:00:56;;;;;;;17.38;7.13;;;;;;;;;;5115193;28;20393;-42
2023/10/01 15:03:35;;;;;;;19.50;7.60;;;;;;;;;;5115119;28;20430;-42
2023/10/01 15:06:05;;;;;;;17.55;7.15;;;;;;;;;;5115024;28;20073;-41
2023/10/01 15:08:31;;;;;;;18.10;7.00;;;;;;;;;;5115016;28;20015;-41
2023/10/01 15:10:57;;;;;;;16.65;7.72;;;;;;;;;;5114565;28;20016;-41
2023/10/01 15:13:35;;;;;;;18.05;7.43;;;;;;;;;;5114932;28;20016;-41
2023/10/01 15:16:04;;;;;;;18.83;7.72;;;;;;;;;;5114531;28;20023;-42
2023/10/01 15:18:32;;;;;;;16.42;7.55;;;;;;;;;;5114780;28;20492;-41
2023/10/01 15:20:59;;;;;;;23.58;7.90;;;;;;;;;;5114757;28;20024;-41
2023/10/01 15:23:24;;;;;;;18.60;7.65;;;;;;;;;;5114735;28;20020;-40
2023/10/01 15:25:49;;;;;;;20.13;7.88;;;;;;;;;;5115130;28;20150;-42
2023/10/01 15:28:15;;;;;;;21.90;7.57;;;;;;;;;;5114773;28;20023;-41
2023/10/01 15:30:47;;;;;;;20.25;7.43;;;;;;;;;;5114841;28;20337;-41
2023/10/01 15:33:15;;;;;;;28.33;8.23;;;;;;;;;;5114305;28;20008;-41
2023/10/01 15:35:53;;;;;;;19.85;7.70;;;;;;;;;;5114259;28;20024;-41
2023/10/01 15:38:29;;;;;;;17.58;7.88;;;;;;;;;;5114438;28;20105;-41
2023/10/01 15:40:55;;;;;;;24.85;8.20;;;;;;;;;;5114526;28;20473;-41
2023/10/01 15:43:20;;;;;;;19.63;7.82;;;;;;;;;;5114413;28;20047;-41
2023/10/01 15:45:46;;;;;;;19.20;7.78;;;;;;;;;;5114418;28;20023;-41